Laramie Regional Airport
KLAR : now visible

Airfield :











YOU CAN JOIN US ON...

 
LOGIN :

Register | Disclaimer

   EN    FR    IT 

 









Legend :    VFR   Marginal VFR   IFR   Intensive IFR   Very Intensive IFR
Visi :
Ceiling :
>= 8 km
>= 3000ft
5 to 8 km
1000 to 3000 ft
1500m to 5 km
500 to 1000 ft
800 to 1500m
200 to 500 ft
< 800m
< 200 ft
Symbols :   Thunderstorms  Fog  Heavy snow  Heavy precipitations  Wind > 20 kt






- Airport Elevation : 7284 ft
- IATA code : LAR


KLAR - Laramie Regional

CURRENT METAR :
  • 220153Z AUTO 22011KT 10SM BKN055 OVC085 00/M09 A2992 RMK AO2 SLP132 T00001094

EXPIRED METARs :
  • 220053Z AUTO 23007KT 10SM FEW090 SCT120 M01/M09 A2992 RMK AO2 SLP132 T10061089
  • 212353Z AUTO 26015KT 10SM BKN110 01/M09 A2990 RMK AO2 PK WND 26026/2320 SLP120 T00111094 10050 20011

TAF KLAR
Valid from the 22 at 00:00 until the 23 at 00:00 UTC


212338Z 2200/2224 26012G22KT P6SM BKN080
FM220200 24010KT P6SM OVC060
FM221600 27011KT P6SM OVC070
KZDV FIR / North America



MET'MAP, your aeronautical weather chart ! - Copyright ORBIFLY December 2007 - Disclaimer

ORBIFLY MET'MAP TEAM :

Programming & Development : Alexandra Zaïnal
Concept & original design : Baudouin d'Aumeries
Assistance for programming : Marc-Olivier Méhu
Technical & hardware support : Manuel Goepfert

Contact : metmap@orbifly.com




SOURCES & CREDITS :

   NOAA       Earth
Advisory